sensor_id;sensor_type;location;lat;lon;timestamp;P1;durP1;ratioP1;P2;durP2;ratioP2
40058;SDS011;25763;49.972;8.568;2023-02-22T00:01:09;16.42;;;15.43;;
40058;SDS011;25763;49.972;8.568;2023-02-22T00:03:57;16.48;;;15.27;;
40058;SDS011;25763;49.972;8.568;2023-02-22T00:06:22;14.73;;;13.82;;
40058;SDS011;25763;49.972;8.568;2023-02-22T00:08:49;16.65;;;15.65;;
40058;SDS011;25763;49.972;8.568;2023-02-22T00:11:16;15.30;;;14.40;;
40058;SDS011;25763;49.972;8.568;2023-02-22T00:13:42;16.27;;;15.27;;
40058;SDS011;25763;49.972;8.568;2023-02-22T00:16:09;15.02;;;14.13;;
40058;SDS011;25763;49.972;8.568;2023-02-22T00:18:38;17.25;;;16.00;;
40058;SDS011;25763;49.972;8.568;2023-02-22T00:21:03;17.08;;;15.95;;
40058;SDS011;25763;49.972;8.568;2023-02-22T00:23:34;15.82;;;14.93;;
40058;SDS011;25763;49.972;8.568;2023-02-22T00:26:04;15.50;;;14.55;;
40058;SDS011;25763;49.972;8.568;2023-02-22T00:28:30;16.23;;;15.23;;
40058;SDS011;25763;49.972;8.568;2023-02-22T00:30:55;14.85;;;13.95;;
40058;SDS011;25763;49.972;8.568;2023-02-22T00:33:21;14.68;;;13.80;;
40058;SDS011;25763;49.972;8.568;2023-02-22T00:35:47;15.30;;;14.40;;
40058;SDS011;25763;49.972;8.568;2023-02-22T00:38:14;15.15;;;14.15;;
40058;SDS011;25763;49.972;8.568;2023-02-22T00:40:41;14.05;;;13.15;;
40058;SDS011;25763;49.972;8.568;2023-02-22T00:43:06;14.00;;;13.20;;
40058;SDS011;25763;49.972;8.568;2023-02-22T00:45:33;15.05;;;14.15;;
40058;SDS011;25763;49.972;8.568;2023-02-22T00:47:59;14.05;;;13.13;;
40058;SDS011;25763;49.972;8.568;2023-02-22T00:50:25;13.23;;;12.43;;
40058;SDS011;25763;49.972;8.568;2023-02-22T00:52:53;13.80;;;12.73;;
40058;SDS011;25763;49.972;8.568;2023-02-22T00:55:25;15.02;;;14.13;;
40058;SDS011;25763;49.972;8.568;2023-02-22T00:57:56;14.27;;;13.35;;
40058;SDS011;25763;49.972;8.568;2023-02-22T01:00:24;13.55;;;12.75;;
40058;SDS011;25763;49.972;8.568;2023-02-22T01:02:53;14.00;;;13.02;;
40058;SDS011;25763;49.972;8.568;2023-02-22T01:05:22;12.73;;;11.93;;
40058;SDS011;25763;49.972;8.568;2023-02-22T01:07:56;13.60;;;12.80;;
40058;SDS011;25763;49.972;8.568;2023-02-22T01:10:23;15.32;;;14.25;;
40058;SDS011;25763;49.972;8.568;2023-02-22T01:12:50;15.18;;;13.95;;
40058;SDS011;25763;49.972;8.568;2023-02-22T01:15:18;13.45;;;12.65;;
40058;SDS011;25763;49.972;8.568;2023-02-22T01:17:49;14.15;;;13.35;;
40058;SDS011;25763;49.972;8.568;2023-02-22T01:20:16;15.50;;;14.60;;
40058;SDS011;25763;49.972;8.568;2023-02-22T01:22:43;14.20;;;13.30;;
40058;SDS011;25763;49.972;8.568;2023-02-22T01:25:15;14.77;;;13.77;;
40058;SDS011;25763;49.972;8.568;2023-02-22T01:27:43;15.88;;;14.90;;
40058;SDS011;25763;49.972;8.568;2023-02-22T01:30:09;13.55;;;12.75;;
40058;SDS011;25763;49.972;8.568;2023-02-22T01:32:37;14.52;;;13.63;;
40058;SDS011;25763;49.972;8.568;2023-02-22T01:35:07;13.63;;;12.73;;
40058;SDS011;25763;49.972;8.568;2023-02-22T01:37:35;15.65;;;14.63;;
40058;SDS011;25763;49.972;8.568;2023-02-22T01:40:01;13.98;;;13.18;;
40058;SDS011;25763;49.972;8.568;2023-02-22T01:42:28;18.35;;;15.50;;
40058;SDS011;25763;49.972;8.568;2023-02-22T01:51:18;14.95;;;14.05;;
40058;SDS011;25763;49.972;8.568;2023-02-22T01:54:07;14.32;;;13.43;;
40058;SDS011;25763;49.972;8.568;2023-02-22T01:59:28;15.75;;;14.73;;
40058;SDS011;25763;49.972;8.568;2023-02-22T02:01:59;16.58;;;15.48;;
40058;SDS011;25763;49.972;8.568;2023-02-22T02:04:24;14.57;;;13.73;;
40058;SDS011;25763;49.972;8.568;2023-02-22T02:06:51;14.77;;;13.88;;
40058;SDS011;25763;49.972;8.568;2023-02-22T02:09:26;15.45;;;14.55;;
40058;SDS011;25763;49.972;8.568;2023-02-22T02:11:58;16.95;;;15.93;;
40058;SDS011;25763;49.972;8.568;2023-02-22T02:14:26;15.82;;;14.93;;
40058;SDS011;25763;49.972;8.568;2023-02-22T02:16:52;14.98;;;14.07;;
40058;SDS011;25763;49.972;8.568;2023-02-22T02:19:37;14.93;;;14.02;;
40058;SDS011;25763;49.972;8.568;2023-02-22T02:22:15;14.50;;;13.52;;
40058;SDS011;25763;49.972;8.568;2023-02-22T02:27:44;15.23;;;14.32;;
40058;SDS011;25763;49.972;8.568;2023-02-22T02:35:59;14.15;;;13.23;;
40058;SDS011;25763;49.972;8.568;2023-02-22T02:38:38;13.23;;;12.43;;
40058;SDS011;25763;49.972;8.568;2023-02-22T02:41:20;13.75;;;12.85;;
40058;SDS011;25763;49.972;8.568;2023-02-22T02:44:05;12.57;;;11.82;;
40058;SDS011;25763;49.972;8.568;2023-02-22T02:46:39;14.73;;;13.82;;
40058;SDS011;25763;49.972;8.568;2023-02-22T02:49:12;15.70;;;14.77;;
40058;SDS011;25763;49.972;8.568;2023-02-22T02:51:43;14.13;;;12.80;;
40058;SDS011;25763;49.972;8.568;2023-02-22T02:54:12;14.63;;;13.63;;
40058;SDS011;25763;49.972;8.568;2023-02-22T02:56:39;14.00;;;13.10;;
40058;SDS011;25763;49.972;8.568;2023-02-22T03:18:33;14.88;;;13.65;;
40058;SDS011;25763;49.972;8.568;2023-02-22T03:24:00;13.25;;;12.45;;
40058;SDS011;25763;49.972;8.568;2023-02-22T03:26:44;13.50;;;12.50;;
40058;SDS011;25763;49.972;8.568;2023-02-22T03:29:16;13.63;;;12.73;;
40058;SDS011;25763;49.972;8.568;2023-02-22T03:31:46;13.63;;;12.63;;
40058;SDS011;25763;49.972;8.568;2023-02-22T03:34:23;13.55;;;12.63;;
40058;SDS011;25763;49.972;8.568;2023-02-22T03:37:07;15.43;;;14.30;;
40058;SDS011;25763;49.972;8.568;2023-02-22T03:39:39;13.30;;;12.50;;
40058;SDS011;25763;49.972;8.568;2023-02-22T03:42:08;13.68;;;12.85;;
40058;SDS011;25763;49.972;8.568;2023-02-22T03:44:38;14.10;;;13.20;;
40058;SDS011;25763;49.972;8.568;2023-02-22T03:47:06;14.65;;;13.65;;
40058;SDS011;25763;49.972;8.568;2023-02-22T03:49:37;13.32;;;12.52;;
40058;SDS011;25763;49.972;8.568;2023-02-22T03:52:09;14.98;;;13.98;;
40058;SDS011;25763;49.972;8.568;2023-02-22T03:54:36;13.27;;;12.48;;
40058;SDS011;25763;49.972;8.568;2023-02-22T03:57:05;14.57;;;13.68;;
40058;SDS011;25763;49.972;8.568;2023-02-22T03:59:45;13.38;;;12.57;;
40058;SDS011;25763;49.972;8.568;2023-02-22T04:02:10;14.65;;;13.75;;
40058;SDS011;25763;49.972;8.568;2023-02-22T04:04:36;14.63;;;13.43;;
40058;SDS011;25763;49.972;8.568;2023-02-22T04:07:01;13.25;;;12.45;;
40058;SDS011;25763;49.972;8.568;2023-02-22T04:09:27;14.07;;;13.20;;
40058;SDS011;25763;49.972;8.568;2023-02-22T04:11:52;12.68;;;11.88;;
40058;SDS011;25763;49.972;8.568;2023-02-22T04:14:18;13.55;;;12.70;;
40058;SDS011;25763;49.972;8.568;2023-02-22T04:16:43;14.00;;;13.00;;
40058;SDS011;25763;49.972;8.568;2023-02-22T04:19:09;12.52;;;11.70;;
40058;SDS011;25763;49.972;8.568;2023-02-22T04:21:34;12.30;;;11.50;;
40058;SDS011;25763;49.972;8.568;2023-02-22T04:23:59;13.07;;;12.27;;
40058;SDS011;25763;49.972;8.568;2023-02-22T04:26:25;14.45;;;13.20;;
40058;SDS011;25763;49.972;8.568;2023-02-22T04:28:50;12.13;;;11.40;;
40058;SDS011;25763;49.972;8.568;2023-02-22T04:31:16;13.48;;;12.57;;
40058;SDS011;25763;49.972;8.568;2023-02-22T04:33:41;12.40;;;11.68;;
40058;SDS011;25763;49.972;8.568;2023-02-22T04:36:07;13.35;;;12.45;;
40058;SDS011;25763;49.972;8.568;2023-02-22T04:38:33;13.13;;;12.27;;
40058;SDS011;25763;49.972;8.568;2023-02-22T04:40:59;12.00;;;11.30;;
40058;SDS011;25763;49.972;8.568;2023-02-22T04:43:24;13.48;;;12.65;;
40058;SDS011;25763;49.972;8.568;2023-02-22T04:45:49;14.35;;;13.45;;
40058;SDS011;25763;49.972;8.568;2023-02-22T04:48:15;14.90;;;13.90;;
40058;SDS011;25763;49.972;8.568;2023-02-22T04:50:40;14.30;;;13.23;;
40058;SDS011;25763;49.972;8.568;2023-02-22T04:53:06;13.48;;;12.60;;
40058;SDS011;25763;49.972;8.568;2023-02-22T04:55:31;12.48;;;11.68;;
40058;SDS011;25763;49.972;8.568;2023-02-22T04:57:58;14.02;;;13.13;;
40058;SDS011;25763;49.972;8.568;2023-02-22T05:00:23;11.93;;;11.13;;
40058;SDS011;25763;49.972;8.568;2023-02-22T05:02:48;11.82;;;11.07;;
40058;SDS011;25763;49.972;8.568;2023-02-22T05:05:15;15.07;;;13.88;;
40058;SDS011;25763;49.972;8.568;2023-02-22T05:07:42;12.90;;;12.10;;
40058;SDS011;25763;49.972;8.568;2023-02-22T05:10:08;14.38;;;13.10;;
40058;SDS011;25763;49.972;8.568;2023-02-22T05:12:34;11.13;;;10.43;;
40058;SDS011;25763;49.972;8.568;2023-02-22T05:15:00;12.95;;;12.05;;
40058;SDS011;25763;49.972;8.568;2023-02-22T05:17:26;13.18;;;12.27;;
40058;SDS011;25763;49.972;8.568;2023-02-22T05:19:51;12.80;;;12.00;;
40058;SDS011;25763;49.972;8.568;2023-02-22T05:22:16;11.20;;;10.48;;
40058;SDS011;25763;49.972;8.568;2023-02-22T05:24:42;12.38;;;11.48;;
40058;SDS011;25763;49.972;8.568;2023-02-22T05:27:08;11.90;;;11.10;;
40058;SDS011;25763;49.972;8.568;2023-02-22T05:29:33;13.27;;;12.38;;
40058;SDS011;25763;49.972;8.568;2023-02-22T05:31:59;12.40;;;10.88;;
40058;SDS011;25763;49.972;8.568;2023-02-22T05:34:26;11.52;;;10.73;;
40058;SDS011;25763;49.972;8.568;2023-02-22T05:36:52;12.10;;;11.35;;
40058;SDS011;25763;49.972;8.568;2023-02-22T05:39:17;12.93;;;12.05;;
40058;SDS011;25763;49.972;8.568;2023-02-22T05:41:42;12.77;;;11.82;;
40058;SDS011;25763;49.972;8.568;2023-02-22T05:44:07;14.80;;;13.02;;
40058;SDS011;25763;49.972;8.568;2023-02-22T05:46:33;14.02;;;13.13;;
40058;SDS011;25763;49.972;8.568;2023-02-22T05:48:58;12.82;;;12.02;;
40058;SDS011;25763;49.972;8.568;2023-02-22T05:51:24;12.23;;;11.32;;
40058;SDS011;25763;49.972;8.568;2023-02-22T05:53:49;14.82;;;13.77;;
40058;SDS011;25763;49.972;8.568;2023-02-22T05:56:19;13.65;;;12.73;;
40058;SDS011;25763;49.972;8.568;2023-02-22T05:58:46;12.43;;;11.63;;
40058;SDS011;25763;49.972;8.568;2023-02-22T06:01:11;13.10;;;12.20;;
40058;SDS011;25763;49.972;8.568;2023-02-22T06:03:37;12.85;;;11.95;;
40058;SDS011;25763;49.972;8.568;2023-02-22T06:06:02;12.25;;;11.45;;
40058;SDS011;25763;49.972;8.568;2023-02-22T06:08:29;11.32;;;10.63;;
40058;SDS011;25763;49.972;8.568;2023-02-22T06:10:54;11.18;;;10.38;;
40058;SDS011;25763;49.972;8.568;2023-02-22T06:13:20;13.38;;;10.93;;
40058;SDS011;25763;49.972;8.568;2023-02-22T06:15:45;11.40;;;10.60;;
40058;SDS011;25763;49.972;8.568;2023-02-22T06:18:10;13.05;;;12.07;;
40058;SDS011;25763;49.972;8.568;2023-02-22T06:20:36;13.15;;;12.05;;
40058;SDS011;25763;49.972;8.568;2023-02-22T06:23:01;11.70;;;10.90;;
40058;SDS011;25763;49.972;8.568;2023-02-22T06:25:27;11.80;;;11.00;;
40058;SDS011;25763;49.972;8.568;2023-02-22T06:27:57;11.00;;;10.30;;
40058;SDS011;25763;49.972;8.568;2023-02-22T06:30:25;11.73;;;10.95;;
40058;SDS011;25763;49.972;8.568;2023-02-22T06:32:51;11.82;;;11.07;;
40058;SDS011;25763;49.972;8.568;2023-02-22T06:35:17;12.43;;;11.63;;
40058;SDS011;25763;49.972;8.568;2023-02-22T06:37:42;11.98;;;11.23;;
40058;SDS011;25763;49.972;8.568;2023-02-22T06:40:08;13.48;;;12.57;;
40058;SDS011;25763;49.972;8.568;2023-02-22T06:42:35;13.35;;;12.40;;
40058;SDS011;25763;49.972;8.568;2023-02-22T06:45:00;11.82;;;11.05;;
40058;SDS011;25763;49.972;8.568;2023-02-22T06:47:26;12.32;;;11.52;;
40058;SDS011;25763;49.972;8.568;2023-02-22T06:49:52;12.20;;;11.30;;
40058;SDS011;25763;49.972;8.568;2023-02-22T06:52:18;11.38;;;10.50;;
40058;SDS011;25763;49.972;8.568;2023-02-22T06:54:43;11.65;;;10.93;;
40058;SDS011;25763;49.972;8.568;2023-02-22T06:57:09;11.88;;;11.13;;
40058;SDS011;25763;49.972;8.568;2023-02-22T06:59:34;14.07;;;12.98;;
40058;SDS011;25763;49.972;8.568;2023-02-22T07:02:00;13.07;;;12.07;;
40058;SDS011;25763;49.972;8.568;2023-02-22T07:04:25;14.00;;;12.90;;
40058;SDS011;25763;49.972;8.568;2023-02-22T07:06:50;13.55;;;12.65;;
40058;SDS011;25763;49.972;8.568;2023-02-22T07:09:16;14.07;;;13.13;;
40058;SDS011;25763;49.972;8.568;2023-02-22T07:11:42;12.45;;;11.68;;
40058;SDS011;25763;49.972;8.568;2023-02-22T07:14:08;14.57;;;13.68;;
40058;SDS011;25763;49.972;8.568;2023-02-22T07:16:34;13.48;;;12.60;;
40058;SDS011;25763;49.972;8.568;2023-02-22T07:18:59;13.02;;;12.13;;
40058;SDS011;25763;49.972;8.568;2023-02-22T07:21:25;13.38;;;12.43;;
40058;SDS011;25763;49.972;8.568;2023-02-22T07:23:52;15.15;;;13.88;;
40058;SDS011;25763;49.972;8.568;2023-02-22T07:26:20;13.73;;;12.55;;
40058;SDS011;25763;49.972;8.568;2023-02-22T07:28:46;13.52;;;12.63;;
40058;SDS011;25763;49.972;8.568;2023-02-22T07:31:11;11.80;;;11.02;;
40058;SDS011;25763;49.972;8.568;2023-02-22T07:33:37;12.65;;;11.65;;
40058;SDS011;25763;49.972;8.568;2023-02-22T07:36:02;11.40;;;10.70;;
40058;SDS011;25763;49.972;8.568;2023-02-22T07:38:28;11.55;;;10.75;;
40058;SDS011;25763;49.972;8.568;2023-02-22T07:40:53;11.20;;;10.43;;
40058;SDS011;25763;49.972;8.568;2023-02-22T07:43:22;10.90;;;10.20;;
40058;SDS011;25763;49.972;8.568;2023-02-22T07:45:50;12.03;;;10.97;;
40058;SDS011;25763;49.972;8.568;2023-02-22T07:48:18;11.55;;;10.52;;
40058;SDS011;25763;49.972;8.568;2023-02-22T07:50:44;24.05;;;10.65;;
40058;SDS011;25763;49.972;8.568;2023-02-22T07:53:11;10.95;;;10.25;;
40058;SDS011;25763;49.972;8.568;2023-02-22T07:55:38;11.02;;;10.30;;
40058;SDS011;25763;49.972;8.568;2023-02-22T07:58:05;11.70;;;11.00;;
40058;SDS011;25763;49.972;8.568;2023-02-22T08:00:36;12.32;;;11.43;;
40058;SDS011;25763;49.972;8.568;2023-02-22T08:03:04;13.10;;;12.20;;
40058;SDS011;25763;49.972;8.568;2023-02-22T08:05:34;12.57;;;11.82;;
40058;SDS011;25763;49.972;8.568;2023-02-22T08:08:04;13.30;;;12.50;;
40058;SDS011;25763;49.972;8.568;2023-02-22T08:10:30;14.00;;;13.10;;
40058;SDS011;25763;49.972;8.568;2023-02-22T08:12:56;15.35;;;14.35;;
40058;SDS011;25763;49.972;8.568;2023-02-22T08:15:25;13.65;;;12.63;;
40058;SDS011;25763;49.972;8.568;2023-02-22T08:17:53;16.77;;;15.60;;
40058;SDS011;25763;49.972;8.568;2023-02-22T08:20:19;14.38;;;13.48;;
40058;SDS011;25763;49.972;8.568;2023-02-22T08:22:45;14.98;;;14.00;;
40058;SDS011;25763;49.972;8.568;2023-02-22T08:25:12;14.93;;;13.98;;
40058;SDS011;25763;49.972;8.568;2023-02-22T08:27:39;14.88;;;13.95;;
40058;SDS011;25763;49.972;8.568;2023-02-22T08:30:05;15.02;;;14.02;;
40058;SDS011;25763;49.972;8.568;2023-02-22T08:32:31;14.77;;;13.85;;
40058;SDS011;25763;49.972;8.568;2023-02-22T08:34:57;14.02;;;13.13;;
40058;SDS011;25763;49.972;8.568;2023-02-22T08:37:22;13.10;;;12.30;;
40058;SDS011;25763;49.972;8.568;2023-02-22T08:39:47;14.05;;;13.15;;
40058;SDS011;25763;49.972;8.568;2023-02-22T08:42:13;13.77;;;12.82;;
40058;SDS011;25763;49.972;8.568;2023-02-22T08:44:38;13.75;;;12.85;;
40058;SDS011;25763;49.972;8.568;2023-02-22T08:47:04;13.90;;;13.02;;
40058;SDS011;25763;49.972;8.568;2023-02-22T08:49:30;13.43;;;12.60;;
40058;SDS011;25763;49.972;8.568;2023-02-22T08:51:56;13.38;;;12.40;;
40058;SDS011;25763;49.972;8.568;2023-02-22T08:54:21;12.38;;;11.52;;
40058;SDS011;25763;49.972;8.568;2023-02-22T08:56:47;12.93;;;12.13;;
40058;SDS011;25763;49.972;8.568;2023-02-22T08:59:13;15.23;;;14.18;;
40058;SDS011;25763;49.972;8.568;2023-02-22T09:01:38;14.32;;;13.35;;
40058;SDS011;25763;49.972;8.568;2023-02-22T09:04:04;13.43;;;12.52;;
40058;SDS011;25763;49.972;8.568;2023-02-22T09:06:29;13.20;;;12.30;;
40058;SDS011;25763;49.972;8.568;2023-02-22T09:08:54;13.40;;;12.50;;
40058;SDS011;25763;49.972;8.568;2023-02-22T09:11:20;13.25;;;12.35;;
40058;SDS011;25763;49.972;8.568;2023-02-22T09:13:45;13.20;;;12.30;;
40058;SDS011;25763;49.972;8.568;2023-02-22T09:16:11;13.02;;;12.13;;
40058;SDS011;25763;49.972;8.568;2023-02-22T09:18:36;12.52;;;11.73;;
40058;SDS011;25763;49.972;8.568;2023-02-22T09:21:02;12.65;;;11.82;;
40058;SDS011;25763;49.972;8.568;2023-02-22T09:23:28;13.68;;;12.77;;
40058;SDS011;25763;49.972;8.568;2023-02-22T09:25:53;11.63;;;10.82;;
40058;SDS011;25763;49.972;8.568;2023-02-22T09:28:19;12.82;;;12.00;;
40058;SDS011;25763;49.972;8.568;2023-02-22T09:30:44;12.13;;;11.23;;
40058;SDS011;25763;49.972;8.568;2023-02-22T09:33:14;12.05;;;11.25;;
40058;SDS011;25763;49.972;8.568;2023-02-22T09:35:42;16.20;;;12.40;;
40058;SDS011;25763;49.972;8.568;2023-02-22T09:38:12;11.60;;;10.80;;
40058;SDS011;25763;49.972;8.568;2023-02-22T09:40:41;11.40;;;10.60;;
40058;SDS011;25763;49.972;8.568;2023-02-22T09:48:58;11.63;;;10.82;;
40058;SDS011;25763;49.972;8.568;2023-02-22T09:51:34;12.85;;;11.68;;
40058;SDS011;25763;49.972;8.568;2023-02-22T09:54:05;12.13;;;11.43;;
40058;SDS011;25763;49.972;8.568;2023-02-22T09:56:38;11.68;;;10.77;;
40058;SDS011;25763;49.972;8.568;2023-02-22T09:59:05;12.77;;;11.98;;
40058;SDS011;25763;49.972;8.568;2023-02-22T10:01:44;11.23;;;10.52;;
40058;SDS011;25763;49.972;8.568;2023-02-22T10:04:35;13.38;;;12.48;;
40058;SDS011;25763;49.972;8.568;2023-02-22T10:07:16;11.75;;;10.95;;
40058;SDS011;25763;49.972;8.568;2023-02-22T10:09:50;12.90;;;12.00;;
40058;SDS011;25763;49.972;8.568;2023-02-22T10:12:43;11.90;;;11.10;;
40058;SDS011;25763;49.972;8.568;2023-02-22T10:15:20;11.27;;;10.48;;
40058;SDS011;25763;49.972;8.568;2023-02-22T10:17:56;12.45;;;11.65;;
40058;SDS011;25763;49.972;8.568;2023-02-22T10:20:52;13.88;;;12.88;;
40058;SDS011;25763;49.972;8.568;2023-02-22T10:23:37;13.43;;;12.50;;
40058;SDS011;25763;49.972;8.568;2023-02-22T10:28:46;13.48;;;12.57;;
40058;SDS011;25763;49.972;8.568;2023-02-22T10:31:41;12.00;;;11.20;;
40058;SDS011;25763;49.972;8.568;2023-02-22T10:34:14;12.10;;;11.30;;
40058;SDS011;25763;49.972;8.568;2023-02-22T10:36:45;12.02;;;11.18;;
40058;SDS011;25763;49.972;8.568;2023-02-22T10:42:05;12.07;;;11.10;;
40058;SDS011;25763;49.972;8.568;2023-02-22T10:44:36;12.93;;;12.02;;
40058;SDS011;25763;49.972;8.568;2023-02-22T10:47:04;12.00;;;11.23;;
40058;SDS011;25763;49.972;8.568;2023-02-22T10:49:35;12.35;;;11.55;;
40058;SDS011;25763;49.972;8.568;2023-02-22T10:52:05;14.77;;;13.35;;
40058;SDS011;25763;49.972;8.568;2023-02-22T10:54:38;11.85;;;11.10;;
40058;SDS011;25763;49.972;8.568;2023-02-22T10:57:07;12.18;;;11.38;;
40058;SDS011;25763;49.972;8.568;2023-02-22T10:59:35;13.98;;;12.95;;
40058;SDS011;25763;49.972;8.568;2023-02-22T11:04:47;12.85;;;11.90;;
40058;SDS011;25763;49.972;8.568;2023-02-22T11:07:18;15.88;;;14.77;;
40058;SDS011;25763;49.972;8.568;2023-02-22T11:09:46;13.40;;;12.60;;
40058;SDS011;25763;49.972;8.568;2023-02-22T11:12:20;14.50;;;13.48;;
40058;SDS011;25763;49.972;8.568;2023-02-22T11:14:51;16.23;;;14.63;;
40058;SDS011;25763;49.972;8.568;2023-02-22T11:17:18;14.30;;;13.30;;
40058;SDS011;25763;49.972;8.568;2023-02-22T11:20:05;14.52;;;13.57;;
40058;SDS011;25763;49.972;8.568;2023-02-22T11:22:41;13.32;;;12.52;;
40058;SDS011;25763;49.972;8.568;2023-02-22T11:25:16;14.50;;;13.50;;
40058;SDS011;25763;49.972;8.568;2023-02-22T11:27:44;14.27;;;13.38;;
40058;SDS011;25763;49.972;8.568;2023-02-22T11:30:30;13.45;;;12.45;;
40058;SDS011;25763;49.972;8.568;2023-02-22T11:32:58;13.07;;;12.27;;
40058;SDS011;25763;49.972;8.568;2023-02-22T11:35:34;13.40;;;12.38;;
40058;SDS011;25763;49.972;8.568;2023-02-22T11:38:17;13.52;;;12.63;;
40058;SDS011;25763;49.972;8.568;2023-02-22T11:40:45;13.95;;;13.05;;
40058;SDS011;25763;49.972;8.568;2023-02-22T11:43:16;11.35;;;10.65;;
40058;SDS011;25763;49.972;8.568;2023-02-22T11:48:30;13.77;;;12.88;;
40058;SDS011;25763;49.972;8.568;2023-02-22T11:56:20;14.68;;;13.57;;
40058;SDS011;25763;49.972;8.568;2023-02-22T11:58:54;13.13;;;12.23;;
40058;SDS011;25763;49.972;8.568;2023-02-22T12:02:04;14.02;;;12.90;;
40058;SDS011;25763;49.972;8.568;2023-02-22T12:04:46;13.07;;;12.07;;
40058;SDS011;25763;49.972;8.568;2023-02-22T12:07:26;14.65;;;13.55;;
40058;SDS011;25763;49.972;8.568;2023-02-22T12:12:57;12.82;;;12.02;;
40058;SDS011;25763;49.972;8.568;2023-02-22T12:18:24;14.02;;;13.10;;
40058;SDS011;25763;49.972;8.568;2023-02-22T12:20:57;16.30;;;15.23;;
40058;SDS011;25763;49.972;8.568;2023-02-22T12:26:38;14.57;;;13.07;;
40058;SDS011;25763;49.972;8.568;2023-02-22T12:31:48;14.52;;;13.52;;
40058;SDS011;25763;49.972;8.568;2023-02-22T12:36:47;12.95;;;12.05;;
40058;SDS011;25763;49.972;8.568;2023-02-22T12:41:54;15.38;;;14.27;;
40058;SDS011;25763;49.972;8.568;2023-02-22T12:44:33;14.27;;;13.27;;
40058;SDS011;25763;49.972;8.568;2023-02-22T12:47:01;12.98;;;12.18;;
40058;SDS011;25763;49.972;8.568;2023-02-22T12:52:45;15.63;;;14.52;;
40058;SDS011;25763;49.972;8.568;2023-02-22T12:57:58;16.88;;;15.77;;
40058;SDS011;25763;49.972;8.568;2023-02-22T13:00:41;17.92;;;16.73;;
40058;SDS011;25763;49.972;8.568;2023-02-22T13:05:56;20.23;;;19.00;;
40058;SDS011;25763;49.972;8.568;2023-02-22T13:08:33;18.92;;;17.83;;
40058;SDS011;25763;49.972;8.568;2023-02-22T13:16:50;18.35;;;17.15;;
40058;SDS011;25763;49.972;8.568;2023-02-22T13:27:36;22.90;;;21.50;;
40058;SDS011;25763;49.972;8.568;2023-02-22T13:30:12;24.02;;;22.60;;
40058;SDS011;25763;49.972;8.568;2023-02-22T13:32:55;22.02;;;20.80;;
40058;SDS011;25763;49.972;8.568;2023-02-22T13:38:18;23.05;;;21.55;;
40058;SDS011;25763;49.972;8.568;2023-02-22T13:41:08;22.73;;;21.43;;
40058;SDS011;25763;49.972;8.568;2023-02-22T13:52:37;22.73;;;21.42;;
40058;SDS011;25763;49.972;8.568;2023-02-22T13:55:05;24.77;;;23.27;;
40058;SDS011;25763;49.972;8.568;2023-02-22T13:57:40;25.30;;;23.70;;
40058;SDS011;25763;49.972;8.568;2023-02-22T14:08:50;22.67;;;21.27;;
40058;SDS011;25763;49.972;8.568;2023-02-22T14:10:55;20.83;;;19.42;;
40058;SDS011;25763;49.972;8.568;2023-02-22T14:16:30;20.30;;;18.98;;
40058;SDS011;25763;49.972;8.568;2023-02-22T14:22:12;20.38;;;19.13;;
40058;SDS011;25763;49.972;8.568;2023-02-22T14:24:43;18.15;;;17.05;;
40058;SDS011;25763;49.972;8.568;2023-02-22T14:27:11;18.75;;;17.52;;
40058;SDS011;25763;49.972;8.568;2023-02-22T14:29:47;19.67;;;18.40;;
40058;SDS011;25763;49.972;8.568;2023-02-22T14:32:17;21.70;;;20.15;;
40058;SDS011;25763;49.972;8.568;2023-02-22T14:34:51;19.63;;;18.42;;
40058;SDS011;25763;49.972;8.568;2023-02-22T14:39:50;19.10;;;17.90;;
40058;SDS011;25763;49.972;8.568;2023-02-22T14:42:27;18.70;;;17.42;;
40058;SDS011;25763;49.972;8.568;2023-02-22T14:44:56;17.95;;;16.85;;
40058;SDS011;25763;49.972;8.568;2023-02-22T14:47:37;19.60;;;18.20;;
40058;SDS011;25763;49.972;8.568;2023-02-22T14:50:18;16.73;;;15.65;;
40058;SDS011;25763;49.972;8.568;2023-02-22T14:52:59;15.93;;;14.93;;
40058;SDS011;25763;49.972;8.568;2023-02-22T14:55:29;17.23;;;16.13;;
40058;SDS011;25763;49.972;8.568;2023-02-22T14:58:01;18.52;;;17.33;;
40058;SDS011;25763;49.972;8.568;2023-02-22T15:00:42;17.63;;;16.52;;
40058;SDS011;25763;49.972;8.568;2023-02-22T15:03:16;15.85;;;14.85;;
40058;SDS011;25763;49.972;8.568;2023-02-22T15:05:42;16.67;;;15.57;;
40058;SDS011;25763;49.972;8.568;2023-02-22T15:08:08;17.60;;;16.50;;
40058;SDS011;25763;49.972;8.568;2023-02-22T15:10:41;17.45;;;16.17;;
40058;SDS011;25763;49.972;8.568;2023-02-22T15:15:46;14.38;;;13.38;;
40058;SDS011;25763;49.972;8.568;2023-02-22T15:23:13;13.63;;;12.63;;
40058;SDS011;25763;49.972;8.568;2023-02-22T15:25:39;15.25;;;14.15;;
40058;SDS011;25763;49.972;8.568;2023-02-22T15:28:12;14.65;;;13.65;;
40058;SDS011;25763;49.972;8.568;2023-02-22T15:30:38;14.15;;;13.13;;
40058;SDS011;25763;49.972;8.568;2023-02-22T15:33:17;14.18;;;13.18;;
40058;SDS011;25763;49.972;8.568;2023-02-22T15:35:57;13.40;;;12.35;;
40058;SDS011;25763;49.972;8.568;2023-02-22T15:38:27;14.40;;;13.35;;
40058;SDS011;25763;49.972;8.568;2023-02-22T15:41:04;12.98;;;12.07;;
40058;SDS011;25763;49.972;8.568;2023-02-22T15:43:32;13.68;;;12.57;;
40058;SDS011;25763;49.972;8.568;2023-02-22T15:45:58;14.82;;;13.75;;
40058;SDS011;25763;49.972;8.568;2023-02-22T15:48:24;13.85;;;12.63;;
40058;SDS011;25763;49.972;8.568;2023-02-22T15:51:10;13.00;;;12.10;;
40058;SDS011;25763;49.972;8.568;2023-02-22T15:53:41;13.55;;;12.55;;
40058;SDS011;25763;49.972;8.568;2023-02-22T15:56:25;15.63;;;14.43;;
40058;SDS011;25763;49.972;8.568;2023-02-22T15:59:02;13.18;;;12.27;;
40058;SDS011;25763;49.972;8.568;2023-02-22T16:01:36;14.77;;;13.77;;
40058;SDS011;25763;49.972;8.568;2023-02-22T16:04:04;14.82;;;13.57;;
40058;SDS011;25763;49.972;8.568;2023-02-22T16:06:34;13.38;;;12.27;;
40058;SDS011;25763;49.972;8.568;2023-02-22T16:09:08;14.27;;;13.25;;
40058;SDS011;25763;49.972;8.568;2023-02-22T16:11:40;15.30;;;13.95;;
40058;SDS011;25763;49.972;8.568;2023-02-22T16:22:43;14.35;;;13.35;;
40058;SDS011;25763;49.972;8.568;2023-02-22T16:32:49;13.73;;;12.82;;
40058;SDS011;25763;49.972;8.568;2023-02-22T16:35:15;13.90;;;12.90;;
40058;SDS011;25763;49.972;8.568;2023-02-22T16:37:47;15.50;;;14.35;;
40058;SDS011;25763;49.972;8.568;2023-02-22T16:40:24;15.13;;;14.02;;
40058;SDS011;25763;49.972;8.568;2023-02-22T16:43:03;15.93;;;13.82;;
40058;SDS011;25763;49.972;8.568;2023-02-22T16:45:31;13.40;;;12.35;;
40058;SDS011;25763;49.972;8.568;2023-02-22T16:48:00;16.92;;;14.52;;
40058;SDS011;25763;49.972;8.568;2023-02-22T16:50:29;14.60;;;13.30;;
40058;SDS011;25763;49.972;8.568;2023-02-22T16:52:54;12.90;;;12.00;;
40058;SDS011;25763;49.972;8.568;2023-02-22T16:55:22;14.05;;;13.02;;
40058;SDS011;25763;49.972;8.568;2023-02-22T16:57:49;12.75;;;11.85;;
40058;SDS011;25763;49.972;8.568;2023-02-22T17:00:19;14.68;;;13.43;;
40058;SDS011;25763;49.972;8.568;2023-02-22T17:02:58;14.60;;;13.57;;
40058;SDS011;25763;49.972;8.568;2023-02-22T17:05:28;13.82;;;12.82;;
40058;SDS011;25763;49.972;8.568;2023-02-22T17:07:54;16.33;;;13.15;;
40058;SDS011;25763;49.972;8.568;2023-02-22T17:10:19;13.50;;;12.50;;